Time;durP1;ratioP1;P1;durP2;ratioP2;P2;SDS_P1;SDS_P2;PMS_P1;PMS_P2;Temp;Humidity;BMP_temperature;BMP_pressure;BME280_temperature;BME280_humidity;BME280_pressure;Samples;Min_cycle;Max_cycle;Signal;HPM_P1;HPM_P2
2022/09/20 00:01:04;;;;;;;3.40;3.10;;;14.50;65.50;;;;;;5058766;28;20025;-75
2022/09/20 00:03:30;;;;;;;2.90;2.60;;;14.50;65.50;;;;;;5048931;28;20029;-73
2022/09/20 00:06:00;;;;;;;5.80;3.35;;;14.50;65.50;;;;;;5047500;28;20029;-75
2022/09/20 00:08:26;;;;;;;3.95;3.55;;;14.50;65.70;;;;;;5049145;28;20254;-74
2022/09/20 00:11:00;;;;;;;8.52;3.80;;;14.50;65.70;;;;;;5049180;28;20037;-75
2022/09/20 00:13:30;;;;;;;3.97;2.95;;;14.50;65.80;;;;;;5053447;28;20035;-74
2022/09/20 00:15:56;;;;;;;3.38;2.63;;;14.50;65.80;;;;;;5046396;28;20047;-74
2022/09/20 00:18:23;;;;;;;4.05;2.83;;;14.50;65.80;;;;;;5047011;28;20276;-74
2022/09/20 00:20:50;;;;;;;4.20;2.92;;;14.50;65.80;;;;;;5047836;28;20235;-75
2022/09/20 00:23:17;;;;;;;4.57;2.90;;;14.40;65.70;;;;;;5060748;28;20476;-73
2022/09/20 00:25:43;;;;;;;4.13;3.13;;;14.50;65.90;;;;;;5050063;28;20045;-74
2022/09/20 00:28:09;;;;;;;3.78;3.20;;;14.40;65.80;;;;;;5054070;28;20488;-75
2022/09/20 00:30:36;;;;;;;4.20;3.10;;;14.40;65.90;;;;;;5035057;28;20466;-73
2022/09/20 00:33:02;;;;;;;4.38;2.92;;;14.40;65.90;;;;;;5031991;28;20033;-74
2022/09/20 00:35:30;;;;;;;3.65;2.80;;;14.40;66.00;;;;;;5036218;28;20028;-73
2022/09/20 00:37:56;;;;;;;3.33;2.65;;;14.40;66.00;;;;;;5032507;28;20557;-74
2022/09/20 00:40:25;;;;;;;3.38;2.80;;;14.40;66.10;;;;;;5034718;28;20136;-73
2022/09/20 00:42:53;;;;;;;3.58;3.28;;;14.40;66.20;;;;;;5050168;28;20024;-76
2022/09/20 00:45:21;;;;;;;3.35;3.05;;;14.40;66.20;;;;;;5048598;28;20018;-74
2022/09/20 00:47:53;;;;;;;4.30;3.10;;;14.40;66.20;;;;;;5055471;28;20093;-74
2022/09/20 00:50:32;;;;;;;3.88;2.85;;;14.40;66.30;;;;;;5052295;28;20045;-75
2022/09/20 00:53:26;;;;;;;3.50;3.13;;;14.40;66.40;;;;;;5053821;28;20025;-74
2022/09/20 00:56:04;;;;;;;3.25;2.95;;;14.40;66.40;;;;;;5045158;28;20132;-74
2022/09/20 00:58:34;;;;;;;4.55;3.17;;;14.40;66.40;;;;;;5049697;28;20055;-74
2022/09/20 01:01:00;;;;;;;3.25;2.80;;;14.40;66.30;;;;;;5048469;28;20071;-74
2022/09/20 01:03:32;;;;;;;5.32;3.58;;;14.40;66.30;;;;;;5045343;28;20029;-75
2022/09/20 01:06:02;;;;;;;3.03;2.72;;;14.40;66.40;;;;;;5047500;28;20025;-75
2022/09/20 01:08:28;;;;;;;3.65;2.70;;;14.40;66.40;;;;;;5048323;28;20025;-75
2022/09/20 01:10:54;;;;;;;4.18;3.25;;;14.40;66.40;;;;;;5046202;28;20037;-75
2022/09/20 01:13:21;;;;;;;2.90;2.60;;;14.40;66.40;;;;;;5050294;28;20032;-75
2022/09/20 01:15:50;;;;;;;3.58;3.28;;;14.40;66.50;;;;;;5046492;28;20037;-74
2022/09/20 01:18:17;;;;;;;3.80;2.80;;;14.40;66.60;;;;;;5046755;28;20025;-74
2022/09/20 01:20:45;;;;;;;3.05;2.75;;;14.40;66.60;;;;;;5048219;28;20136;-75
2022/09/20 01:23:23;;;;;;;3.63;2.78;;;14.40;66.70;;;;;;5047993;28;20037;-76
2022/09/20 01:26:03;;;;;;;3.65;2.47;;;14.40;66.70;;;;;;5047825;28;20043;-74
2022/09/20 01:28:30;;;;;;;4.35;3.10;;;14.40;66.70;;;;;;5048954;28;20503;-74
2022/09/20 01:31:05;;;;;;;3.70;3.30;;;14.30;66.50;;;;;;5044104;28;20036;-75
2022/09/20 01:33:47;;;;;;;2.90;2.45;;;14.30;66.70;;;;;;5040152;28;20061;-74
2022/09/20 01:36:22;;;;;;;3.10;2.90;;;14.30;66.70;;;;;;5034929;28;20032;-75
2022/09/20 01:39:20;;;;;;;3.35;2.95;;;14.30;66.70;;;;;;5026957;28;20580;-74
2022/09/20 01:42:10;;;;;;;3.22;2.45;;;14.30;66.80;;;;;;5027533;28;20052;-75
2022/09/20 01:45:02;;;;;;;4.03;3.35;;;14.30;66.80;;;;;;5048927;28;20029;-72
2022/09/20 01:47:58;;;;;;;4.20;2.95;;;14.30;66.90;;;;;;5048171;28;20033;-73
2022/09/20 01:50:54;;;;;;;3.97;2.80;;;14.30;66.80;;;;;;5030492;28;20057;-74
2022/09/20 01:53:56;;;;;;;3.00;2.70;;;14.30;66.90;;;;;;5050941;28;20282;-74
2022/09/20 01:56:34;;;;;;;6.45;2.67;;;14.30;67.00;;;;;;5062780;28;20103;-74
2022/09/20 01:59:17;;;;;;;4.60;2.92;;;14.30;66.90;;;;;;5051955;28;20028;-75
2022/09/20 02:02:33;;;;;;;2.50;2.30;;;14.30;67.00;;;;;;5055969;28;20027;-74
2022/09/20 02:05:17;;;;;;;3.95;2.97;;;14.30;67.10;;;;;;5037246;28;20041;-74
2022/09/20 02:07:58;;;;;;;3.28;2.80;;;14.30;67.00;;;;;;5051592;28;20613;-74
2022/09/20 02:11:02;;;;;;;2.65;2.28;;;14.30;67.10;;;;;;5049901;28;20048;-75
2022/09/20 02:13:43;;;;;;;3.38;2.63;;;14.20;66.90;;;;;;5052501;28;20127;-75
2022/09/20 02:16:40;;;;;;;2.88;2.13;;;14.20;66.90;;;;;;5051815;28;20049;-74
2022/09/20 02:19:23;;;;;;;4.45;2.50;;;14.20;66.90;;;;;;5046728;28;20033;-75
2022/09/20 02:22:21;;;;;;;3.07;2.53;;;14.20;67.00;;;;;;5052213;28;20704;-75
2022/09/20 02:25:15;;;;;;;2.90;2.58;;;14.10;66.90;;;;;;5035328;28;20361;-75
2022/09/20 02:27:58;;;;;;;4.50;2.97;;;14.10;66.90;;;;;;5047926;28;20025;-74
2022/09/20 02:30:54;;;;;;;3.25;2.50;;;14.10;66.90;;;;;;5052713;28;20024;-75
2022/09/20 02:33:33;;;;;;;4.65;2.75;;;14.10;67.10;;;;;;5055035;28;20070;-75
2022/09/20 02:36:16;;;;;;;3.10;2.42;;;14.00;66.80;;;;;;5040157;28;20037;-76
2022/09/20 02:39:11;;;;;;;3.22;2.50;;;14.00;67.00;;;;;;5054010;28;20029;-75
2022/09/20 02:41:49;;;;;;;3.15;2.40;;;13.90;66.80;;;;;;5042283;28;20037;-74
2022/09/20 02:44:28;;;;;;;3.00;2.50;;;13.90;66.90;;;;;;5050995;28;20040;-75
2022/09/20 02:47:13;;;;;;;3.95;2.60;;;13.90;67.00;;;;;;5050295;28;20037;-74
2022/09/20 02:50:06;;;;;;;3.97;2.88;;;13.80;66.90;;;;;;5046176;28;20048;-75
2022/09/20 02:52:41;;;;;;;2.60;2.38;;;13.80;67.00;;;;;;5057122;28;20025;-75
2022/09/20 02:55:15;;;;;;;4.07;2.65;;;13.80;67.00;;;;;;5050711;28;20224;-74
2022/09/20 02:57:54;;;;;;;3.15;2.85;;;13.70;66.90;;;;;;5043363;28;20037;-75
2022/09/20 03:00:26;;;;;;;6.15;2.97;;;13.70;66.90;;;;;;5046013;28;20025;-75
2022/09/20 03:03:21;;;;;;;3.40;3.10;;;13.70;66.90;;;;;;5033053;28;20048;-74
2022/09/20 03:06:23;;;;;;;2.97;2.55;;;13.60;66.90;;;;;;5046570;28;20278;-73
2022/09/20 03:09:25;;;;;;;2.92;2.70;;;13.60;66.90;;;;;;5013965;28;20021;-75
2022/09/20 03:12:01;;;;;;;2.97;2.72;;;13.60;66.90;;;;;;5032782;28;20484;-74
2022/09/20 03:14:38;;;;;;;3.20;2.90;;;13.60;66.90;;;;;;5051382;28;20231;-73
2022/09/20 03:17:41;;;;;;;3.35;2.70;;;13.50;66.80;;;;;;5046894;28;20045;-74
2022/09/20 03:20:22;;;;;;;4.10;3.10;;;13.50;66.90;;;;;;5027697;28;20040;-75
2022/09/20 03:23:00;;;;;;;2.85;2.58;;;13.40;66.60;;;;;;5045806;28;20048;-74
2022/09/20 03:25:46;;;;;;;4.82;3.00;;;13.40;66.70;;;;;;5044769;28;20492;-73
2022/09/20 03:28:37;;;;;;;3.80;2.90;;;13.30;66.70;;;;;;5054121;28;20043;-75
2022/09/20 03:31:19;;;;;;;5.05;3.28;;;13.20;66.50;;;;;;5041356;28;20052;-75
2022/09/20 03:34:00;;;;;;;4.28;2.78;;;13.20;66.60;;;;;;5048250;28;20040;-74
2022/09/20 03:37:02;;;;;;;3.78;3.00;;;13.10;66.50;;;;;;5039213;28;20053;-75
2022/09/20 03:39:41;;;;;;;3.88;3.30;;;13.10;66.70;;;;;;5044071;28;20044;-74
2022/09/20 03:42:19;;;;;;;3.72;3.03;;;13.10;66.60;;;;;;5046886;28;20025;-75
2022/09/20 03:45:04;;;;;;;3.80;3.50;;;13.00;66.50;;;;;;5047103;28;20469;-75
2022/09/20 03:47:31;;;;;;;3.45;2.95;;;13.00;66.50;;;;;;5047542;28;20433;-75
2022/09/20 03:50:06;;;;;;;2.92;2.70;;;12.90;66.40;;;;;;5028939;28;20520;-74
2022/09/20 03:53:00;;;;;;;3.53;2.80;;;12.90;66.50;;;;;;5051779;28;20384;-74
2022/09/20 03:55:52;;;;;;;2.97;2.40;;;12.90;66.60;;;;;;5046293;28;20029;-74
2022/09/20 03:58:38;;;;;;;4.00;2.85;;;12.80;66.50;;;;;;5047555;28;20049;-75
2022/09/20 04:01:19;;;;;;;4.70;3.25;;;12.80;66.50;;;;;;5044108;28;20377;-74
2022/09/20 04:03:56;;;;;;;3.53;2.88;;;12.80;66.50;;;;;;5046890;28;20021;-73
2022/09/20 04:06:50;;;;;;;4.18;3.63;;;12.80;66.50;;;;;;5046086;28;20023;-73
2022/09/20 04:09:52;;;;;;;;;;;12.70;66.40;;;;;;5025932;28;20085;-74
2022/09/20 04:12:20;;;;;;;3.63;3.03;;;12.70;66.30;;;;;;5030121;28;19912;-74
2022/09/20 04:15:14;;;;;;;3.45;2.70;;;12.70;66.10;;;;;;5045232;28;20501;-74
2022/09/20 04:18:14;;;;;;;4.90;3.10;;;12.60;66.10;;;;;;5041916;28;20052;-74
2022/09/20 04:21:02;;;;;;;3.50;2.95;;;12.60;66.20;;;;;;5039711;28;20052;-76
2022/09/20 04:23:46;;;;;;;3.60;2.92;;;12.50;66.10;;;;;;5025395;28;20041;-73
2022/09/20 04:26:24;;;;;;;3.75;2.83;;;12.50;66.10;;;;;;5048951;28;20056;-74
2022/09/20 04:29:27;;;;;;;4.72;3.13;;;12.40;66.00;;;;;;5052968;28;20072;-74
2022/09/20 04:32:41;;;;;;;3.28;2.97;;;12.40;66.20;;;;;;5052401;28;20317;-74
2022/09/20 04:38:15;;;;;;;2.97;2.67;;;12.30;66.00;;;;;;5041471;28;20041;-75
2022/09/20 04:41:10;;;;;;;3.30;2.55;;;12.30;66.50;;;;;;5040289;28;20134;-75
2022/09/20 04:43:49;;;;;;;2.92;2.63;;;12.20;65.90;;;;;;5047975;28;20021;-74
2022/09/20 04:46:35;;;;;;;2.42;2.15;;;12.20;65.80;;;;;;5050802;28;20123;-74
2022/09/20 04:49:19;;;;;;;2.55;2.35;;;12.20;66.00;;;;;;5039869;28;20031;-74
2022/09/20 04:52:19;;;;;;;2.25;2.05;;;12.20;66.10;;;;;;5044294;28;20038;-74
2022/09/20 04:55:09;;;;;;;3.15;2.78;;;12.10;65.90;;;;;;5034686;28;20481;-74
2022/09/20 04:58:31;;;;;;;2.70;2.22;;;12.10;65.80;;;;;;5048091;28;20374;-74
2022/09/20 05:01:29;;;;;;;3.75;2.42;;;12.10;65.90;;;;;;5043179;28;20395;-74
2022/09/20 05:04:50;;;;;;;3.45;2.88;;;12.10;65.80;;;;;;5044151;28;20022;-75
2022/09/20 05:07:29;;;;;;;4.32;2.72;;;12.00;65.70;;;;;;5016912;28;20041;-75
2022/09/20 05:10:20;;;;;;;2.95;2.42;;;12.00;65.60;;;;;;5065738;28;20633;-74
2022/09/20 05:13:07;;;;;;;3.13;2.78;;;12.00;65.70;;;;;;5043392;28;20025;-74
2022/09/20 05:16:16;;;;;;;3.03;2.75;;;12.00;65.70;;;;;;5045020;28;20021;-75
2022/09/20 05:18:59;;;;;;;3.20;2.60;;;11.90;65.60;;;;;;5045451;28;20036;-75
2022/09/20 05:21:58;;;;;;;3.65;3.17;;;11.90;65.60;;;;;;5048972;28;20079;-74
2022/09/20 05:25:00;;;;;;;3.58;3.28;;;11.80;65.50;;;;;;5031532;28;20098;-74
2022/09/20 05:28:03;;;;;;;3.53;2.88;;;11.80;65.50;;;;;;5048413;28;20397;-74
2022/09/20 05:30:33;;;;;;;3.40;3.10;;;11.90;65.70;;;;;;5047165;28;20036;-75
2022/09/20 05:33:30;;;;;;;3.47;2.85;;;11.80;65.50;;;;;;5047822;28;20505;-75
2022/09/20 05:36:05;;;;;;;3.30;3.00;;;11.80;65.70;;;;;;5049249;28;20036;-75
2022/09/20 05:38:49;;;;;;;3.60;3.00;;;11.80;65.60;;;;;;5047033;28;20035;-74
2022/09/20 05:41:46;;;;;;;3.95;3.55;;;11.70;65.40;;;;;;5044044;28;20029;-76
2022/09/20 05:44:21;;;;;;;3.63;2.67;;;11.70;65.50;;;;;;5047272;28;20163;-77
2022/09/20 05:47:19;;;;;;;2.80;2.50;;;11.70;65.50;;;;;;5047462;28;20024;-75
2022/09/20 05:50:15;;;;;;;3.03;2.67;;;11.70;65.50;;;;;;5041330;28;20066;-76
2022/09/20 05:53:02;;;;;;;3.00;2.70;;;11.70;65.50;;;;;;5046826;28;20037;-77
2022/09/20 05:56:02;;;;;;;2.58;2.17;;;11.70;65.50;;;;;;5044938;28;20043;-78
2022/09/20 05:59:04;;;;;;;2.30;2.10;;;11.60;65.30;;;;;;5044654;28;20055;-72
2022/09/20 06:01:43;;;;;;;3.05;2.28;;;11.60;65.40;;;;;;5049431;28;20033;-75
2022/09/20 06:04:26;;;;;;;3.67;2.50;;;11.60;65.30;;;;;;5047038;28;20086;-77
2022/09/20 06:07:01;;;;;;;2.85;2.65;;;11.60;65.30;;;;;;5044523;28;20067;-77
2022/09/20 06:09:50;;;;;;;2.35;2.15;;;11.50;65.10;;;;;;5032730;28;20047;-76
2022/09/20 06:12:38;;;;;;;2.90;2.47;;;11.50;65.20;;;;;;5030121;28;20041;-78
2022/09/20 06:15:35;;;;;;;2.75;2.45;;;11.60;65.30;;;;;;5043295;28;20057;-77
2022/09/20 06:18:09;;;;;;;2.70;2.38;;;11.50;65.20;;;;;;5043108;28;20041;-77
2022/09/20 06:21:06;;;;;;;3.83;2.92;;;11.50;65.10;;;;;;5045309;28;20036;-77
2022/09/20 06:23:34;;;;;;;2.83;2.58;;;11.50;65.50;;;;;;5043128;28;20408;-76
2022/09/20 06:26:08;;;;;;;4.03;2.92;;;11.60;65.90;;;;;;5048545;28;20032;-77
2022/09/20 06:28:45;;;;;;;2.95;2.65;;;11.80;66.80;;;;;;5046231;28;20043;-76
2022/09/20 06:31:11;;;;;;;2.72;2.50;;;11.90;67.00;;;;;;5043698;28;20024;-76
2022/09/20 06:33:57;;;;;;;2.95;2.58;;;12.00;67.00;;;;;;5045366;28;20321;-76
2022/09/20 06:42:11;;;;;;;2.53;2.33;;;12.10;66.60;;;;;;5041060;28;20305;-74
2022/09/20 06:44:40;;;;;;;2.65;2.35;;;12.10;66.50;;;;;;5046964;28;20035;-75
2022/09/20 06:47:08;;;;;;;3.08;2.63;;;12.10;66.50;;;;;;5041287;28;20034;-75
2022/09/20 06:49:35;;;;;;;2.60;2.40;;;12.20;66.60;;;;;;5033766;28;20057;-76
2022/09/20 06:52:09;;;;;;;2.55;2.28;;;12.20;66.60;;;;;;5043805;28;20044;-74
2022/09/20 06:54:36;;;;;;;3.03;1.98;;;12.20;66.50;;;;;;5038719;28;20051;-75
2022/09/20 06:57:04;;;;;;;2.75;2.50;;;12.20;66.50;;;;;;5042404;28;20037;-75
2022/09/20 06:59:31;;;;;;;3.15;2.72;;;12.20;66.40;;;;;;5046695;28;20025;-75
2022/09/20 07:01:57;;;;;;;2.50;2.30;;;12.30;66.50;;;;;;5052071;28;20518;-75
2022/09/20 07:04:25;;;;;;;3.30;3.03;;;12.30;66.40;;;;;;5028075;28;20033;-77
2022/09/20 07:06:58;;;;;;;3.33;2.25;;;12.30;66.30;;;;;;5029882;28;20033;-75
2022/09/20 07:09:25;;;;;;;2.75;2.55;;;12.40;66.30;;;;;;5045464;28;20112;-76
2022/09/20 07:11:51;;;;;;;2.90;2.60;;;12.40;66.20;;;;;;5047531;28;20283;-76
2022/09/20 07:14:18;;;;;;;3.95;2.80;;;12.50;66.30;;;;;;5041325;28;20116;-76
2022/09/20 07:16:44;;;;;;;3.03;2.63;;;12.50;66.30;;;;;;5047104;28;20045;-76
2022/09/20 07:19:09;;;;;;;3.00;2.70;;;12.60;66.30;;;;;;5043620;28;20025;-77
2022/09/20 07:21:37;;;;;;;3.30;2.83;;;12.70;66.40;;;;;;5058959;28;20060;-76
2022/09/20 07:24:02;;;;;;;3.17;2.75;;;12.70;66.30;;;;;;5049318;28;20029;-76
2022/09/20 07:26:29;;;;;;;3.35;2.78;;;12.80;66.40;;;;;;5047093;28;20028;-74
2022/09/20 07:28:56;;;;;;;2.47;2.15;;;12.90;66.50;;;;;;5043286;28;20032;-75
2022/09/20 07:31:25;;;;;;;3.53;2.40;;;12.90;66.40;;;;;;5048228;28;20492;-77
2022/09/20 07:33:52;;;;;;;3.15;2.70;;;13.00;66.50;;;;;;5045066;28;20105;-77
2022/09/20 07:36:18;;;;;;;3.78;2.35;;;13.00;66.50;;;;;;5049989;28;20029;-76
2022/09/20 07:38:52;;;;;;;2.80;2.60;;;13.10;66.60;;;;;;5051709;28;20247;-75
2022/09/20 07:41:21;;;;;;;3.08;2.85;;;13.10;66.60;;;;;;5047464;28;20037;-76
2022/09/20 07:43:49;;;;;;;3.55;2.75;;;13.20;66.60;;;;;;5047820;28;20492;-76
2022/09/20 07:46:15;;;;;;;3.15;2.78;;;13.20;66.60;;;;;;5049559;28;20028;-78
2022/09/20 07:48:41;;;;;;;2.45;2.25;;;13.30;66.80;;;;;;5039938;28;20531;-76
2022/09/20 07:51:10;;;;;;;2.70;2.50;;;13.30;66.80;;;;;;5045753;28;20121;-73
2022/09/20 07:53:36;;;;;;;2.90;2.47;;;13.40;67.00;;;;;;5046690;28;20106;-76
2022/09/20 07:56:12;;;;;;;5.55;3.10;;;13.40;67.00;;;;;;5046657;28;20095;-77
2022/09/20 07:58:38;;;;;;;3.30;2.83;;;13.50;67.10;;;;;;5047061;28;20044;-75
2022/09/20 08:01:10;;;;;;;3.13;2.83;;;13.60;67.20;;;;;;5032290;28;20416;-76
2022/09/20 08:03:36;;;;;;;2.97;2.78;;;13.70;67.30;;;;;;5053147;28;20488;-76
2022/09/20 08:06:08;;;;;;;3.63;2.97;;;13.70;67.20;;;;;;5053637;28;20029;-76
2022/09/20 08:08:36;;;;;;;4.63;2.53;;;13.90;67.40;;;;;;5062586;28;20287;-77
2022/09/20 08:11:09;;;;;;;4.10;3.00;;;14.00;67.50;;;;;;5051039;28;20029;-75
2022/09/20 08:13:40;;;;;;;5.30;3.17;;;14.10;67.50;;;;;;5051884;28;20037;-74
2022/09/20 08:16:10;;;;;;;4.57;3.47;;;14.30;67.60;;;;;;5055326;28;20444;-78
2022/09/20 08:18:37;;;;;;;3.42;3.13;;;14.50;67.80;;;;;;5050969;28;20032;-74
2022/09/20 08:21:09;;;;;;;3.50;3.17;;;14.60;67.70;;;;;;5049757;28;20091;-73
2022/09/20 08:23:39;;;;;;;5.13;3.60;;;14.80;67.80;;;;;;5051082;28;20056;-74
2022/09/20 08:26:07;;;;;;;3.60;3.25;;;15.00;67.90;;;;;;5050970;28;20196;-74
2022/09/20 08:28:33;;;;;;;3.33;3.03;;;15.20;67.90;;;;;;5052417;28;20033;-74
2022/09/20 08:31:15;;;;;;;6.55;2.72;;;15.40;68.00;;;;;;5045974;28;20028;-74
2022/09/20 08:33:42;;;;;;;3.13;2.83;;;15.60;68.10;;;;;;5041924;28;20040;-76
2022/09/20 08:36:12;;;;;;;3.97;3.58;;;15.70;67.90;;;;;;5025529;28;20163;-77
2022/09/20 08:38:38;;;;;;;4.15;3.45;;;15.90;68.10;;;;;;5043171;28;20037;-77
2022/09/20 08:41:12;;;;;;;4.55;3.55;;;15.90;68.00;;;;;;5053905;28;20033;-76
2022/09/20 08:43:45;;;;;;;4.60;3.60;;;16.10;68.30;;;;;;5045674;28;20029;-76
2022/09/20 08:46:16;;;;;;;5.63;4.13;;;16.10;68.30;;;;;;5046666;28;20202;-76
2022/09/20 08:48:43;;;;;;;4.80;3.85;;;16.20;68.30;;;;;;5050485;28;20025;-75
2022/09/20 08:51:14;;;;;;;3.75;3.42;;;16.30;68.40;;;;;;5045812;28;20456;-77
2022/09/20 08:53:46;;;;;;;6.47;3.58;;;16.40;68.50;;;;;;5049468;28;20033;-76
2022/09/20 08:56:12;;;;;;;3.65;3.35;;;16.50;68.50;;;;;;5046920;28;20029;-76
2022/09/20 08:58:39;;;;;;;5.20;3.85;;;16.60;68.40;;;;;;5050416;28;20020;-77
2022/09/20 09:01:06;;;;;;;6.13;3.90;;;16.70;68.40;;;;;;5052274;28;20029;-77
2022/09/20 09:03:33;;;;;;;6.07;4.32;;;16.80;68.40;;;;;;5036289;28;20044;-76
2022/09/20 09:06:00;;;;;;;4.68;4.25;;;16.90;68.40;;;;;;5047776;28;20041;-77
2022/09/20 09:08:38;;;;;;;5.20;3.95;;;17.10;68.50;;;;;;5049197;28;20038;-76
2022/09/20 09:11:13;;;;;;;5.38;4.40;;;17.10;68.30;;;;;;5041869;28;20033;-77
2022/09/20 09:13:52;;;;;;;5.28;4.43;;;17.30;68.40;;;;;;5047787;28;20037;-75
2022/09/20 09:16:22;;;;;;;6.72;5.30;;;17.40;68.30;;;;;;5049956;28;20082;-76
2022/09/20 09:18:50;;;;;;;6.63;5.20;;;17.50;68.20;;;;;;5029398;28;20055;-76
2022/09/20 09:21:20;;;;;;;6.30;5.50;;;17.60;68.20;;;;;;5042142;28;20037;-76
2022/09/20 09:24:04;;;;;;;5.72;4.40;;;17.60;68.00;;;;;;5046184;28;20496;-75
2022/09/20 09:26:39;;;;;;;5.40;4.65;;;17.70;67.90;;;;;;5046917;28;20033;-75
2022/09/20 09:29:16;;;;;;;6.78;6.07;;;17.80;67.80;;;;;;5050720;28;20558;-75
2022/09/20 09:31:44;;;;;;;6.85;5.65;;;18.00;67.90;;;;;;5044619;28;20043;-74
2022/09/20 09:34:30;;;;;;;6.82;5.97;;;18.10;67.70;;;;;;5043099;28;20617;-75
2022/09/20 09:36:57;;;;;;;11.05;6.75;;;18.30;67.60;;;;;;5048970;28;20066;-77
2022/09/20 09:39:31;;;;;;;7.05;6.35;;;18.40;67.30;;;;;;5047617;28;20025;-76
2022/09/20 09:41:59;;;;;;;7.40;5.93;;;18.60;67.10;;;;;;5045486;28;20036;-76
2022/09/20 09:44:32;;;;;;;6.68;5.97;;;18.80;67.10;;;;;;5051138;28;20245;-77
2022/09/20 09:47:01;;;;;;;7.05;6.35;;;19.00;67.00;;;;;;5050931;28;20047;-76
2022/09/20 09:49:32;;;;;;;6.65;5.95;;;19.20;66.90;;;;;;5037902;28;20041;-76
2022/09/20 09:52:12;;;;;;;6.18;5.57;;;19.30;66.60;;;;;;5047111;28;20021;-76
2022/09/20 09:54:47;;;;;;;7.15;6.45;;;19.40;66.30;;;;;;5047921;28;20025;-76
2022/09/20 09:57:19;;;;;;;6.60;5.40;;;19.60;66.30;;;;;;5048449;28;20045;-76
2022/09/20 09:59:48;;;;;;;6.35;4.82;;;19.70;66.10;;;;;;5043604;28;20036;-76
2022/09/20 10:02:46;;;;;;;8.95;5.72;;;19.80;65.80;;;;;;5043926;28;20037;-77
2022/09/20 10:05:38;;;;;;;6.00;5.30;;;20.00;65.50;;;;;;5048127;28;20465;-75
2022/09/20 10:08:25;;;;;;;5.82;5.22;;;20.10;65.10;;;;;;5043706;28;20028;-77
2022/09/20 10:11:12;;;;;;;5.63;4.95;;;20.20;64.90;;;;;;5045652;28;20881;-76
2022/09/20 10:13:38;;;;;;;5.78;5.28;;;20.30;64.80;;;;;;5046182;28;20029;-76
2022/09/20 10:16:21;;;;;;;6.40;5.30;;;20.40;64.60;;;;;;5047934;28;20488;-75
2022/09/20 10:19:01;;;;;;;;;;;20.50;64.20;;;;;;5046059;28;20145;-76
2022/09/20 10:21:56;;;;;;;4.93;4.53;;;20.60;64.20;;;;;;5046264;28;19913;-76
2022/09/20 10:24:37;;;;;;;4.70;4.25;;;20.60;63.70;;;;;;5061237;28;20071;-76
2022/09/20 10:27:21;;;;;;;7.50;5.78;;;20.70;63.50;;;;;;5048815;28;20021;-77
2022/09/20 10:30:17;;;;;;;4.78;3.85;;;20.80;63.10;;;;;;5054065;28;20089;-76
2022/09/20 10:32:48;;;;;;;3.83;3.53;;;20.90;62.50;;;;;;5047346;28;20041;-77
2022/09/20 10:35:39;;;;;;;7.47;4.78;;;21.00;62.50;;;;;;5045916;28;20036;-76
2022/09/20 10:38:42;;;;;;;5.22;3.70;;;21.10;61.90;;;;;;5046705;28;20036;-77
2022/09/20 10:44:35;;;;;;;5.05;4.22;;;21.10;61.30;;;;;;5038558;28;20040;-77
2022/09/20 10:47:22;;;;;;;5.63;4.47;;;21.30;61.00;;;;;;5041713;28;20489;-76
2022/09/20 10:50:08;;;;;;;4.20;3.80;;;21.30;61.00;;;;;;5044583;28;20407;-76
2022/09/20 10:53:15;;;;;;;3.88;3.58;;;21.40;60.80;;;;;;5036596;28;20044;-86
2022/09/20 10:55:58;;;;;;;4.85;4.10;;;21.50;60.30;;;;;;5040982;28;20063;-78
2022/09/20 10:58:39;;;;;;;4.97;4.47;;;21.60;60.50;;;;;;5053927;28;20041;-75
2022/09/20 11:01:16;;;;;;;5.50;3.38;;;21.70;60.30;;;;;;5051855;28;20657;-75
2022/09/20 11:04:17;;;;;;;6.63;4.43;;;21.90;60.40;;;;;;5050441;28;20036;-76
2022/09/20 11:07:31;;;;;;;4.63;4.13;;;22.00;60.10;;;;;;5046827;28;20116;-76
2022/09/20 11:10:00;;;;;;;;;;;22.00;60.30;;;;;;5042996;28;20488;-77
2022/09/20 11:12:50;;;;;;;4.30;3.90;;;22.00;60.10;;;;;;5047543;28;19990;-77
2022/09/20 11:15:29;;;;;;;4.18;3.78;;;22.00;59.70;;;;;;5044583;28;20032;-75
2022/09/20 11:18:32;;;;;;;5.20;4.00;;;22.00;59.70;;;;;;5041428;28;20046;-74
2022/09/20 11:21:18;;;;;;;5.35;3.53;;;21.90;59.10;;;;;;5037754;28;20086;-75
2022/09/20 11:24:33;;;;;;;4.10;3.67;;;21.90;59.20;;;;;;5044186;28;20053;-74
2022/09/20 11:27:22;;;;;;;3.75;3.45;;;21.80;58.90;;;;;;5023325;28;20033;-76
2022/09/20 11:29:57;;;;;;;3.88;3.47;;;21.80;59.10;;;;;;5003620;28;20310;-76
2022/09/20 11:32:33;;;;;;;4.00;3.63;;;21.70;59.10;;;;;;5042084;28;20044;-76
2022/09/20 11:35:13;;;;;;;4.28;3.55;;;21.60;58.90;;;;;;5046153;28;20086;-75
2022/09/20 11:38:08;;;;;;;4.40;3.35;;;21.60;59.00;;;;;;5047078;28;20037;-76
2022/09/20 11:40:39;;;;;;;4.40;3.92;;;21.50;58.80;;;;;;5023026;28;20488;-75
2022/09/20 11:43:08;;;;;;;3.50;3.20;;;21.50;59.10;;;;;;5035555;28;20123;-76
2022/09/20 11:45:38;;;;;;;3.13;2.90;;;21.50;59.20;;;;;;5050885;28;20041;-76
2022/09/20 11:48:20;;;;;;;4.25;3.40;;;21.40;59.00;;;;;;5042986;28;20416;-76
2022/09/20 11:51:12;;;;;;;3.58;3.28;;;21.50;59.10;;;;;;5044836;28;20059;-76
2022/09/20 11:54:03;;;;;;;3.95;3.42;;;21.50;59.00;;;;;;5050365;28;20032;-76
2022/09/20 11:56:32;;;;;;;4.45;3.67;;;21.50;58.90;;;;;;5042202;28;20029;-76
2022/09/20 11:59:02;;;;;;;4.60;3.42;;;21.70;59.10;;;;;;5047737;28;20037;-76
2022/09/20 12:01:34;;;;;;;3.70;3.40;;;21.70;58.70;;;;;;5055556;28;20395;-75
2022/09/20 12:04:28;;;;;;;3.88;3.42;;;21.80;58.50;;;;;;5056216;28;20487;-77
2022/09/20 12:07:38;;;;;;;4.32;3.15;;;21.90;58.20;;;;;;5028115;28;20051;-76
2022/09/20 12:10:22;;;;;;;3.80;3.50;;;22.10;58.10;;;;;;5062695;28;20037;-76
2022/09/20 12:12:55;;;;;;;2.72;2.53;;;22.30;58.20;;;;;;5064926;28;20025;-76
2022/09/20 12:15:25;;;;;;;3.28;2.70;;;22.40;58.20;;;;;;5075462;28;20040;-76
2022/09/20 12:17:54;;;;;;;2.85;2.50;;;22.60;58.00;;;;;;5059197;28;20136;-77
2022/09/20 12:20:41;;;;;;;3.13;2.83;;;22.90;58.00;;;;;;5039800;28;20073;-74
2022/09/20 12:23:39;;;;;;;3.53;2.38;;;23.10;57.50;;;;;;5055296;28;20035;-75
2022/09/20 12:26:12;;;;;;;3.00;2.50;;;23.40;57.20;;;;;;5052863;28;20029;-76
2022/09/20 12:28:40;;;;;;;2.58;2.38;;;23.50;57.10;;;;;;5050323;28;20098;-76
2022/09/20 12:31:21;;;;;;;3.20;2.72;;;23.80;57.40;;;;;;5052814;28;20038;-76
2022/09/20 12:34:09;;;;;;;5.55;2.17;;;24.00;57.20;;;;;;5033709;28;20103;-76
2022/09/20 12:36:45;;;;;;;2.15;1.85;;;24.20;56.80;;;;;;5047323;28;20078;-77
2022/09/20 12:39:10;;;;;;;3.03;1.88;;;24.40;56.80;;;;;;5047114;28;20531;-76
2022/09/20 12:41:51;;;;;;;2.47;2.00;;;24.50;56.60;;;;;;5048992;28;20573;-76
2022/09/20 12:44:38;;;;;;;2.58;2.00;;;24.70;56.40;;;;;;5060934;28;20044;-76
2022/09/20 12:47:05;;;;;;;3.55;1.70;;;24.90;56.50;;;;;;5050747;28;20101;-77
2022/09/20 12:53:00;;;;;;;2.10;1.98;;;25.10;56.20;;;;;;5037669;28;20032;-76
2022/09/20 12:55:26;;;;;;;1.98;1.50;;;25.20;55.80;;;;;;5048390;28;20029;-75
2022/09/20 12:57:54;;;;;;;1.52;1.42;;;25.30;55.70;;;;;;5045903;28;20071;-74
2022/09/20 13:00:39;;;;;;;2.03;1.83;;;25.40;55.20;;;;;;5054387;28;20025;-76
2022/09/20 13:03:14;;;;;;;2.15;1.95;;;25.50;54.60;;;;;;5061051;28;20041;-76
2022/09/20 13:05:45;;;;;;;3.60;3.13;;;25.60;54.30;;;;;;5050315;28;20035;-76
2022/09/20 13:08:12;;;;;;;3.15;2.95;;;25.60;54.10;;;;;;5052207;28;20036;-76
2022/09/20 13:10:48;;;;;;;2.58;2.38;;;25.60;54.10;;;;;;5051396;28;20234;-77
2022/09/20 13:13:30;;;;;;;3.28;2.53;;;25.60;53.90;;;;;;5049627;28;20028;-75
2022/09/20 13:15:57;;;;;;;3.67;2.95;;;25.50;54.00;;;;;;5051744;28;20067;-75
2022/09/20 13:18:26;;;;;;;3.95;2.60;;;25.50;54.10;;;;;;5044568;28;20048;-75
2022/09/20 13:20:55;;;;;;;2.88;2.67;;;25.60;54.10;;;;;;5047160;28;20563;-75
2022/09/20 13:23:26;;;;;;;3.22;2.75;;;25.60;54.00;;;;;;5049912;28;20025;-76
2022/09/20 13:25:56;;;;;;;3.13;2.92;;;25.60;53.90;;;;;;5056248;28;20404;-76
2022/09/20 13:28:50;;;;;;;3.25;2.95;;;25.70;53.90;;;;;;5049921;28;20043;-75
2022/09/20 13:31:23;;;;;;;3.05;2.47;;;25.80;53.80;;;;;;5047841;28;20097;-75
2022/09/20 13:33:50;;;;;;;3.28;2.90;;;25.80;53.80;;;;;;5043410;28;20036;-76
2022/09/20 13:36:24;;;;;;;3.83;3.20;;;25.90;53.70;;;;;;5035198;28;20097;-76
2022/09/20 13:38:54;;;;;;;3.53;2.70;;;25.90;53.40;;;;;;5041078;28;20031;-76
2022/09/20 13:41:20;;;;;;;4.20;3.80;;;25.90;53.30;;;;;;5051125;28;20031;-76
2022/09/20 13:43:49;;;;;;;5.65;3.25;;;25.90;53.10;;;;;;5050884;28;20420;-76
2022/09/20 13:46:27;;;;;;;3.05;2.67;;;25.90;52.80;;;;;;5052103;28;20455;-77
2022/09/20 13:49:08;;;;;;;3.40;2.90;;;25.90;53.20;;;;;;5041632;28;20025;-76
2022/09/20 13:51:34;;;;;;;2.80;2.60;;;25.90;52.50;;;;;;5028472;28;20045;-75
2022/09/20 13:54:32;;;;;;;2.65;2.40;;;26.00;52.60;;;;;;5049463;28;20021;-75
2022/09/20 13:57:04;;;;;;;2.70;2.42;;;26.00;52.00;;;;;;5046121;28;20044;-75
2022/09/20 13:59:35;;;;;;;2.55;2.35;;;26.10;52.10;;;;;;5050619;28;20032;-76
2022/09/20 14:02:02;;;;;;;4.25;2.40;;;26.10;51.80;;;;;;5033217;28;20051;-75
2022/09/20 14:04:30;;;;;;;2.60;2.40;;;26.10;51.60;;;;;;5048305;28;20043;-75